createdAt,value
2022-09-03T00:00:14.719Z,6.02
2022-09-03T00:02:50.844Z,6.01
2022-09-03T00:05:27.508Z,6.00
2022-09-03T00:08:04.803Z,6.01
2022-09-03T00:10:43.862Z,6.00
2022-09-03T00:13:20.368Z,6.01
2022-09-03T00:15:54.857Z,5.99
2022-09-03T00:18:30.985Z,5.99
2022-09-03T00:21:08.771Z,5.98
2022-09-03T00:23:48.251Z,5.93
2022-09-03T00:26:26.628Z,5.90
2022-09-03T00:29:03.870Z,5.86
2022-09-03T00:31:40.482Z,5.85
2022-09-03T00:34:17.674Z,5.78
2022-09-03T00:36:50.916Z,5.72
2022-09-03T00:39:26.389Z,5.65
2022-09-03T00:42:08.156Z,5.60
2022-09-03T00:44:57.137Z,5.55
2022-09-03T00:47:33.867Z,5.52
2022-09-03T00:50:13.115Z,5.47
2022-09-03T00:52:52.567Z,5.44
2022-09-03T00:55:31.151Z,5.42
2022-09-03T00:58:17.388Z,5.37
2022-09-03T01:00:52.964Z,5.35
2022-09-03T01:03:30.465Z,5.30
2022-09-03T01:06:17.012Z,5.29
2022-09-03T01:09:16.654Z,5.25
2022-09-03T01:11:56.580Z,5.24
2022-09-03T01:14:35.954Z,5.21
2022-09-03T01:17:13.783Z,5.20
2022-09-03T01:20:03.519Z,5.19
2022-09-03T01:23:04.538Z,5.18
2022-09-03T01:25:48.847Z,5.18
2022-09-03T01:28:37.146Z,5.17
2022-09-03T01:31:16.455Z,4.95
2022-09-03T01:33:55.044Z,5.18
2022-09-03T01:36:32.279Z,5.13
2022-09-03T01:39:08.230Z,5.16
2022-09-03T01:42:05.745Z,5.18
2022-09-03T01:44:44.758Z,5.19
2022-09-03T01:47:22.538Z,5.18
2022-09-03T01:49:59.666Z,5.15
2022-09-03T01:52:39.357Z,5.15
2022-09-03T01:55:18.910Z,5.15
2022-09-03T01:57:57.364Z,5.14
2022-09-03T02:00:32.596Z,5.13
2022-09-03T02:03:08.523Z,5.12
2022-09-03T02:05:43.088Z,5.11
2022-09-03T02:08:16.105Z,5.11
2022-09-03T02:10:52.082Z,5.11
2022-09-03T02:16:14.553Z,5.22
2022-09-03T02:18:51.019Z,5.11
2022-09-03T02:21:26.094Z,5.11
2022-09-03T02:23:59.451Z,5.10
2022-09-03T02:26:32.562Z,5.09
2022-09-03T02:29:05.920Z,5.07
2022-09-03T02:31:38.991Z,5.07
2022-09-03T02:34:12.216Z,5.10
2022-09-03T02:36:47.065Z,5.08
2022-09-03T02:39:20.115Z,5.08
2022-09-03T02:41:57.397Z,5.08
2022-09-03T02:44:32.973Z,5.08
2022-09-03T02:47:08.604Z,5.07
2022-09-03T02:49:41.566Z,5.06
2022-09-03T02:52:14.496Z,5.05
2022-09-03T02:54:47.790Z,5.04
2022-09-03T02:57:27.421Z,5.05
2022-09-03T02:59:56.601Z,5.05
2022-09-03T03:02:29.807Z,5.07
2022-09-03T03:05:03.155Z,5.08
2022-09-03T03:07:39.388Z,5.09
2022-09-03T03:10:13.608Z,5.11
2022-09-03T03:12:46.864Z,5.12
2022-09-03T03:15:21.071Z,5.12
2022-09-03T03:17:54.265Z,5.15
2022-09-03T03:20:27.769Z,5.16
2022-09-03T03:23:02.383Z,5.17
2022-09-03T03:25:35.644Z,5.21
2022-09-03T03:28:10.292Z,5.24
2022-09-03T03:30:45.764Z,5.23
2022-09-03T03:33:19.101Z,5.25
2022-09-03T03:35:52.292Z,5.27
2022-09-03T03:38:25.725Z,5.29
2022-09-03T03:41:01.587Z,5.34
2022-09-03T03:43:36.391Z,5.37
2022-09-03T03:46:10.903Z,5.41
2022-09-03T03:48:44.354Z,5.42
2022-09-03T03:51:17.785Z,5.42
2022-09-03T03:53:52.695Z,5.44
2022-09-03T03:56:29.017Z,5.08
2022-09-03T03:59:03.074Z,5.46
2022-09-03T04:01:36.394Z,5.48
2022-09-03T04:04:09.733Z,5.52
2022-09-03T04:06:43.264Z,5.55
2022-09-03T04:09:16.567Z,5.57
2022-09-03T04:11:50.712Z,5.60
2022-09-03T04:14:23.876Z,5.64
2022-09-03T04:16:57.537Z,5.68
2022-09-03T04:19:30.727Z,5.73
2022-09-03T04:22:04.395Z,5.75
2022-09-03T04:24:39.663Z,5.79
2022-09-03T04:27:15.345Z,5.80
2022-09-03T04:29:48.493Z,5.86
2022-09-03T04:32:39.414Z,5.90
2022-09-03T04:35:12.967Z,5.96
2022-09-03T04:37:46.273Z,5.96
2022-09-03T04:40:19.887Z,6.05
2022-09-03T04:42:54.686Z,6.12
2022-09-03T04:45:29.028Z,6.18
2022-09-03T04:48:03.774Z,6.26
2022-09-03T04:50:37.039Z,6.36
2022-09-03T04:53:10.509Z,6.41
2022-09-03T04:55:43.701Z,6.52
2022-09-03T04:58:16.973Z,6.59
2022-09-03T05:00:51.886Z,6.68
2022-09-03T05:03:25.251Z,6.76
2022-09-03T05:05:59.715Z,6.81
2022-09-03T05:08:34.988Z,6.84
2022-09-03T05:11:09.187Z,6.89
2022-09-03T05:13:42.394Z,6.94
2022-09-03T05:16:15.591Z,7.00
2022-09-03T05:18:49.978Z,7.06
2022-09-03T05:21:24.705Z,7.13
2022-09-03T05:23:57.955Z,7.20
2022-09-03T05:26:36.203Z,7.27
2022-09-03T05:29:10.943Z,7.32
2022-09-03T05:31:44.237Z,7.38
2022-09-03T05:34:19.796Z,7.42
2022-09-03T05:36:56.274Z,7.49
2022-09-03T05:39:29.822Z,7.55
2022-09-03T05:42:03.045Z,7.65
2022-09-03T05:44:39.395Z,7.73
2022-09-03T05:47:13.134Z,7.81
2022-09-03T05:49:46.674Z,7.87
2022-09-03T05:52:22.144Z,7.88
2022-09-03T05:54:55.498Z,7.89
2022-09-03T06:00:19.083Z,8.00
2022-09-03T06:02:54.394Z,8.04
2022-09-03T06:05:31.612Z,8.11
2022-09-03T06:08:06.758Z,8.20
2022-09-03T06:10:41.247Z,8.25
2022-09-03T06:13:15.078Z,8.33
2022-09-03T06:15:48.561Z,8.41
2022-09-03T06:18:26.838Z,8.41
2022-09-03T06:21:05.760Z,8.48
2022-09-03T06:23:41.047Z,8.58
2022-09-03T06:26:16.499Z,8.68
2022-09-03T06:28:50.332Z,8.90
2022-09-03T06:31:24.271Z,9.52
2022-09-03T06:34:03.371Z,10.67
2022-09-03T06:36:33.935Z,12.03
2022-09-03T06:39:07.273Z,13.07
2022-09-03T06:41:40.478Z,14.07
2022-09-03T06:44:15.419Z,15.45
2022-09-03T06:46:48.867Z,16.69
2022-09-03T06:49:22.427Z,16.99
2022-09-03T06:51:55.713Z,17.25
2022-09-03T06:54:29.114Z,17.62
2022-09-03T06:57:03.789Z,18.30
2022-09-03T06:59:36.997Z,18.89
2022-09-03T07:02:10.586Z,18.77
2022-09-03T07:04:44.269Z,18.79
2022-09-03T07:07:17.522Z,19.04
2022-09-03T07:09:50.855Z,19.89
2022-09-03T07:12:24.037Z,21.01
2022-09-03T07:14:57.152Z,22.32
2022-09-03T07:17:30.342Z,22.79
2022-09-03T07:20:03.692Z,23.26
2022-09-03T07:22:36.973Z,23.38
2022-09-03T07:25:11.658Z,23.22
2022-09-03T07:27:45.019Z,22.99
2022-09-03T07:30:19.804Z,22.66
2022-09-03T07:32:54.250Z,22.50
2022-09-03T07:35:27.787Z,22.90
2022-09-03T07:38:01.236Z,23.02
2022-09-03T07:40:34.461Z,21.97
2022-09-03T07:43:07.948Z,21.97
2022-09-03T07:45:41.412Z,21.87
2022-09-03T07:48:16.834Z,21.82
2022-09-03T07:50:50.041Z,21.48
2022-09-03T07:53:23.285Z,21.45
2022-09-03T07:55:57.194Z,21.05
2022-09-03T07:58:33.052Z,20.43
2022-09-03T08:01:11.289Z,20.32
2022-09-03T08:03:47.797Z,20.83
2022-09-03T08:06:23.002Z,22.13
2022-09-03T08:09:04.662Z,21.97
2022-09-03T08:11:37.197Z,20.17
2022-09-03T08:14:12.775Z,18.64
2022-09-03T08:16:48.390Z,19.07
2022-09-03T08:19:25.046Z,18.14
2022-09-03T08:21:58.969Z,16.99
2022-09-03T08:24:34.491Z,17.64
2022-09-03T08:27:10.859Z,18.03
2022-09-03T08:29:45.990Z,19.58
2022-09-03T08:32:20.269Z,20.40
2022-09-03T08:34:55.732Z,21.96
2022-09-03T08:37:30.023Z,23.59
2022-09-03T08:40:05.313Z,24.06
2022-09-03T08:42:49.018Z,23.26
2022-09-03T08:45:24.623Z,22.55
2022-09-03T08:48:02.197Z,21.38
2022-09-03T08:50:38.717Z,20.84
2022-09-03T08:53:16.179Z,21.42
2022-09-03T08:55:54.167Z,20.64
2022-09-03T08:58:29.439Z,21.51
2022-09-03T09:01:05.639Z,22.97
2022-09-03T09:03:48.142Z,23.60
2022-09-03T09:06:25.887Z,23.40
2022-09-03T09:09:07.320Z,23.83
2022-09-03T09:11:49.785Z,24.24
2022-09-03T09:14:26.880Z,24.59
2022-09-03T09:17:04.368Z,23.61
2022-09-03T09:19:40.840Z,23.09
2022-09-03T09:22:17.796Z,23.07
2022-09-03T09:24:53.479Z,22.36
2022-09-03T09:27:27.415Z,20.88
2022-09-03T09:30:03.497Z,19.33
2022-09-03T09:32:38.562Z,18.06
2022-09-03T09:35:12.779Z,17.27
2022-09-03T09:37:54.499Z,16.75
2022-09-03T09:40:33.339Z,16.40
2022-09-03T09:43:08.912Z,16.33
2022-09-03T09:45:44.112Z,16.31
2022-09-03T09:48:21.943Z,15.98
2022-09-03T09:50:55.136Z,15.71
2022-09-03T09:53:30.428Z,15.56
2022-09-03T09:56:04.617Z,15.58
2022-09-03T09:58:38.620Z,15.67
2022-09-03T10:01:16.800Z,15.38
2022-09-03T10:03:55.578Z,15.09
2022-09-03T10:06:55.917Z,14.99
2022-09-03T10:09:32.326Z,14.96
2022-09-03T10:14:57.234Z,15.38
2022-09-03T10:17:36.913Z,16.01
2022-09-03T10:20:34.019Z,18.69
2022-09-03T10:23:14.918Z,20.49
2022-09-03T10:26:00.289Z,19.41
2022-09-03T10:28:35.395Z,20.39
2022-09-03T10:31:31.107Z,22.42
2022-09-03T10:34:08.432Z,23.72
2022-09-03T10:36:45.901Z,21.31
2022-09-03T10:39:23.031Z,20.99
2022-09-03T10:42:07.043Z,22.14
2022-09-03T10:44:51.333Z,21.72
2022-09-03T10:47:32.372Z,20.49
2022-09-03T10:50:12.835Z,21.56
2022-09-03T10:52:55.507Z,23.69
2022-09-03T10:55:32.641Z,25.60
2022-09-03T10:58:11.772Z,26.26
2022-09-03T11:00:49.757Z,24.05
2022-09-03T11:03:48.453Z,24.19
2022-09-03T11:06:25.498Z,23.04
2022-09-03T11:09:06.629Z,22.69
2022-09-03T11:11:41.658Z,24.24
2022-09-03T11:14:19.335Z,23.02
2022-09-03T11:16:55.575Z,21.10
2022-09-03T11:19:32.520Z,19.67
2022-09-03T11:22:07.990Z,18.46
2022-09-03T11:24:44.800Z,17.55
2022-09-03T11:27:26.415Z,16.98
2022-09-03T11:30:03.095Z,16.66
2022-09-03T11:32:46.669Z,16.45
2022-09-03T11:35:28.351Z,16.31
2022-09-03T11:38:04.052Z,16.19
2022-09-03T11:40:40.141Z,16.07
2022-09-03T11:43:17.902Z,15.98
2022-09-03T11:45:50.642Z,16.04
2022-09-03T11:48:38.098Z,16.35
2022-09-03T11:51:25.970Z,16.51
2022-09-03T11:54:00.726Z,18.60
2022-09-03T11:56:36.888Z,20.07
2022-09-03T11:59:20.976Z,19.59
2022-09-03T12:01:57.514Z,18.61
2022-09-03T12:04:34.304Z,18.19
2022-09-03T12:07:23.702Z,18.30
2022-09-03T12:10:16.002Z,18.14
2022-09-03T12:13:24.230Z,17.90
2022-09-03T12:19:14.935Z,22.70
2022-09-03T12:21:50.916Z,23.97
2022-09-03T12:24:24.359Z,24.33
2022-09-03T12:26:59.018Z,24.51
2022-09-03T12:29:33.678Z,24.80
2022-09-03T12:32:12.671Z,24.28
2022-09-03T12:34:46.119Z,23.82
2022-09-03T12:40:08.223Z,22.60
2022-09-03T12:42:38.492Z,23.02
2022-09-03T12:45:16.111Z,23.37
2022-09-03T12:47:49.401Z,22.74
2022-09-03T12:50:24.422Z,22.25
2022-09-03T12:53:00.680Z,23.22
2022-09-03T12:55:37.196Z,23.96
2022-09-03T12:58:14.158Z,23.45
2022-09-03T13:00:51.102Z,23.56
2022-09-03T13:03:29.425Z,24.88
2022-09-03T13:06:10.023Z,24.88
2022-09-03T13:08:49.017Z,24.47
2022-09-03T13:11:31.960Z,24.25
2022-09-03T13:14:10.258Z,24.07
2022-09-03T13:17:30.553Z,21.57
2022-09-03T13:20:25.365Z,19.89
2022-09-03T13:23:15.968Z,18.48
2022-09-03T13:26:18.358Z,17.91
2022-09-03T13:29:03.361Z,17.91
2022-09-03T13:31:40.117Z,20.07
2022-09-03T13:37:52.599Z,23.24
2022-09-03T13:41:11.422Z,23.37
2022-09-03T13:44:20.922Z,22.05
2022-09-03T13:51:28.984Z,20.40
2022-09-03T13:54:48.219Z,19.79
2022-09-03T13:57:14.333Z,21.42
2022-09-03T14:01:04.923Z,22.04
2022-09-03T14:03:52.352Z,22.10
2022-09-03T14:06:50.640Z,22.77
2022-09-03T14:09:50.898Z,23.65
2022-09-03T14:12:34.323Z,22.91
2022-09-03T14:15:56.297Z,22.57
2022-09-03T14:19:04.425Z,22.93
2022-09-03T14:21:48.446Z,21.37
2022-09-03T14:28:16.432Z,18.57
2022-09-03T14:33:59.837Z,17.13
2022-09-03T14:36:36.352Z,16.78
2022-09-03T14:39:32.662Z,16.61
2022-09-03T14:42:21.640Z,16.34
2022-09-03T14:45:04.334Z,16.16
2022-09-03T14:47:44.295Z,16.04
2022-09-03T14:50:29.080Z,15.93
2022-09-03T14:54:01.884Z,15.89
2022-09-03T14:56:52.828Z,15.88
2022-09-03T14:59:40.217Z,16.69
2022-09-03T15:03:16.381Z,16.69
2022-09-03T15:06:13.838Z,16.51
2022-09-03T15:08:57.316Z,16.30
2022-09-03T15:11:33.768Z,15.98
2022-09-03T15:14:10.935Z,15.77
2022-09-03T15:16:51.414Z,15.63
2022-09-03T15:19:39.916Z,15.46
2022-09-03T15:22:20.875Z,15.28
2022-09-03T15:24:58.569Z,15.20
2022-09-03T15:27:41.903Z,15.11
2022-09-03T15:30:19.162Z,15.06
2022-09-03T15:33:05.704Z,15.12
2022-09-03T15:35:56.831Z,15.17
2022-09-03T15:38:36.976Z,15.36
2022-09-03T15:41:14.216Z,15.32
2022-09-03T15:43:51.105Z,15.32
2022-09-03T15:46:39.542Z,15.20
2022-09-03T15:49:20.658Z,15.16
2022-09-03T15:52:13.880Z,14.99
2022-09-03T15:55:02.641Z,14.84
2022-09-03T15:57:51.568Z,14.59
2022-09-03T16:03:52.199Z,14.21
2022-09-03T16:06:34.310Z,14.01
2022-09-03T16:12:22.056Z,13.80
2022-09-03T16:14:58.928Z,13.69
2022-09-03T16:17:36.783Z,13.60
2022-09-03T16:20:29.664Z,13.53
2022-09-03T16:23:09.642Z,13.47
2022-09-03T16:25:51.997Z,13.41
2022-09-03T16:28:31.647Z,13.36
2022-09-03T16:31:13.191Z,13.31
2022-09-03T16:33:54.436Z,13.25
2022-09-03T16:36:39.620Z,13.21
2022-09-03T16:39:20.323Z,13.18
2022-09-03T16:42:01.341Z,13.19
2022-09-03T16:44:41.376Z,13.21
2022-09-03T16:47:18.933Z,13.27
2022-09-03T16:50:12.870Z,13.32
2022-09-03T16:52:50.725Z,13.32
2022-09-03T16:55:24.620Z,13.35
2022-09-03T16:58:13.975Z,13.41
2022-09-03T17:00:58.874Z,13.38
2022-09-03T17:04:25.819Z,13.36
2022-09-03T17:09:47.707Z,13.48
2022-09-03T17:12:25.828Z,13.36
2022-09-03T17:15:39.132Z,13.39
2022-09-03T17:21:20.861Z,13.45
2022-09-03T17:24:11.331Z,13.32
2022-09-03T17:26:52.241Z,13.28
2022-09-03T17:29:45.717Z,13.23
2022-09-03T17:32:26.596Z,13.22
2022-09-03T17:35:09.294Z,13.04
2022-09-03T17:37:55.298Z,13.19
2022-09-03T17:40:36.155Z,13.20
2022-09-03T17:43:14.670Z,13.20
2022-09-03T17:45:52.130Z,13.19
2022-09-03T17:48:45.417Z,13.18
2022-09-03T17:51:28.964Z,13.16
2022-09-03T17:56:59.926Z,13.19
2022-09-03T17:59:38.909Z,13.00
2022-09-03T18:02:18.803Z,13.09
2022-09-03T18:04:55.850Z,13.06
2022-09-03T18:07:32.074Z,13.02
2022-09-03T18:10:14.220Z,12.98
2022-09-03T18:13:01.340Z,12.91
2022-09-03T18:15:29.450Z,12.83
2022-09-03T18:18:05.350Z,12.73
2022-09-03T18:21:22.878Z,12.54
2022-09-03T18:23:59.843Z,12.54
2022-09-03T18:26:53.011Z,12.39
2022-09-03T18:29:51.176Z,12.23
2022-09-03T18:32:40.418Z,12.13
2022-09-03T18:35:31.497Z,12.04
2022-09-03T18:38:24.169Z,11.97
2022-09-03T18:41:17.589Z,11.91
2022-09-03T18:44:12.692Z,11.84
2022-09-03T18:48:02.983Z,11.76
2022-09-03T18:50:03.057Z,11.69
2022-09-03T18:52:56.393Z,11.62
2022-09-03T18:55:50.961Z,11.55
2022-09-03T18:58:45.114Z,11.48
2022-09-03T19:01:39.396Z,11.45
2022-09-03T19:04:33.682Z,11.44
2022-09-03T19:07:28.500Z,11.45
2022-09-03T19:10:21.809Z,11.48
2022-09-03T19:13:25.136Z,11.52
2022-09-03T19:16:19.217Z,11.58
2022-09-03T19:19:25.515Z,11.64
2022-09-03T19:22:18.368Z,11.66
2022-09-03T19:25:13.564Z,11.67
2022-09-03T19:28:07.520Z,11.69
2022-09-03T19:31:03.541Z,11.70
2022-09-03T19:33:57.329Z,11.71
2022-09-03T19:36:50.813Z,11.71
2022-09-03T19:39:48.242Z,11.71
2022-09-03T19:42:43.191Z,11.70
2022-09-03T19:45:37.300Z,11.49
2022-09-03T19:48:32.502Z,11.20
2022-09-03T19:51:26.329Z,11.02
2022-09-03T19:54:19.003Z,10.95
2022-09-03T19:57:10.643Z,10.97
2022-09-03T20:00:03.534Z,11.03
2022-09-03T20:02:57.775Z,11.04
2022-09-03T20:05:48.542Z,11.10
2022-09-03T20:08:41.154Z,11.15
2022-09-03T20:11:19.085Z,11.16
2022-09-03T20:14:08.573Z,11.16
2022-09-03T20:16:46.157Z,11.13
2022-09-03T20:19:23.720Z,10.96
2022-09-03T20:21:59.705Z,10.89
2022-09-03T20:27:25.905Z,10.92
2022-09-03T20:30:03.733Z,10.70
2022-09-03T20:32:46.681Z,10.83
2022-09-03T20:35:23.200Z,10.85
2022-09-03T20:38:00.562Z,10.83
2022-09-03T20:40:39.524Z,10.76
2022-09-03T20:43:38.914Z,10.77
2022-09-03T20:46:17.406Z,10.77
2022-09-03T20:48:56.033Z,10.77
2022-09-03T20:51:33.842Z,10.72
2022-09-03T20:54:17.186Z,10.66
2022-09-03T20:57:14.113Z,10.63
2022-09-03T21:00:00.706Z,10.55
2022-09-03T21:02:42.580Z,10.49
2022-09-03T21:05:20.081Z,10.43
2022-09-03T21:08:00.048Z,10.37
2022-09-03T21:10:36.206Z,10.36
2022-09-03T21:13:14.384Z,10.34
2022-09-03T21:15:56.421Z,10.34
2022-09-03T21:18:32.407Z,10.32
2022-09-03T21:23:54.156Z,10.35
2022-09-03T21:26:30.109Z,10.21
2022-09-03T21:29:06.561Z,10.17
2022-09-03T21:31:42.668Z,10.12
2022-09-03T21:34:19.372Z,10.09
2022-09-03T21:36:53.600Z,10.04
2022-09-03T21:39:31.049Z,9.98
2022-09-03T21:42:07.057Z,9.94
2022-09-03T21:44:55.355Z,9.91
2022-09-03T21:47:31.395Z,9.85
2022-09-03T21:50:13.082Z,9.80
2022-09-03T21:52:47.799Z,9.75
2022-09-03T21:55:25.418Z,9.71
2022-09-03T21:58:09.182Z,9.67
2022-09-03T22:00:42.235Z,9.63
2022-09-03T22:03:15.603Z,9.57
2022-09-03T22:05:51.551Z,9.52
2022-09-03T22:11:12.451Z,9.56
2022-09-03T22:13:48.713Z,9.41
2022-09-03T22:16:24.685Z,9.38
2022-09-03T22:18:58.696Z,9.37
2022-09-03T22:21:36.119Z,9.32
2022-09-03T22:24:17.172Z,9.28
2022-09-03T22:26:54.131Z,9.24
2022-09-03T22:29:35.498Z,9.19
2022-09-03T22:35:02.858Z,9.22
2022-09-03T22:37:48.566Z,9.07
2022-09-03T22:40:25.229Z,9.03
2022-09-03T22:43:06.941Z,9.01
2022-09-03T22:45:49.675Z,8.94
2022-09-03T22:48:27.600Z,8.91
2022-09-03T22:51:00.554Z,8.88
2022-09-03T22:53:42.891Z,8.86
2022-09-03T22:56:20.499Z,8.78
2022-09-03T22:58:57.815Z,8.75
2022-09-03T23:01:34.973Z,8.74
2022-09-03T23:04:13.120Z,8.67
2022-09-03T23:06:52.934Z,8.71
2022-09-03T23:09:28.974Z,8.68
2022-09-03T23:12:06.343Z,8.65
2022-09-03T23:14:44.160Z,8.62
2022-09-03T23:17:22.434Z,8.60
2022-09-03T23:20:00.821Z,8.58
2022-09-03T23:22:38.829Z,8.56
2022-09-03T23:25:15.588Z,8.55
2022-09-03T23:27:53.326Z,8.53
2022-09-03T23:30:26.612Z,8.49
2022-09-03T23:33:01.365Z,8.46
2022-09-03T23:35:37.295Z,8.44
2022-09-03T23:38:15.960Z,8.43
2022-09-03T23:40:51.621Z,8.40
2022-09-03T23:43:51.021Z,8.39
2022-09-03T23:46:28.055Z,8.37
2022-09-03T23:49:09.305Z,8.34
2022-09-03T23:51:49.029Z,8.32
2022-09-03T23:54:27.554Z,8.29
2022-09-03T23:57:25.668Z,8.25
